Impacts METAR Board
IDs:

KSAN - San Diego Intl Arpt, CA, US

Updated at: 0700 UTC 24 Jun 2018
Potential Impact None Slight Moderate High
Time 23/19Z 23/20Z 23/21Z 23/22Z 23/23Z 24/00Z 24/01Z 24/02Z 24/03Z 24/04Z 24/05Z 24/06Z 24/07Z
Temp65 66 65 66 66 65 65 65 65 64 64 64 64
Dewpt58 58 57 57 57 57 57 57 57 56 56 57 56
Altim29.92 29.92 29.92 29.91 29.90 29.89 29.87 29.87 29.87 29.88 29.90 29.90 29.90
VIS10 10 10 10 10 10 10 10 10 10 10 10 10
CIG15 16 12 14 15 16 17 16 16 15 16 15 15
CoverOVCOVCOVCOVCOVCOVCOVCOVCOVCOVCOVCOVCOVC
FltCatMVFRMVFRMVFRMVFRMVFRMVFRMVFRMVFRMVFRMVFRMVFRMVFRMVFR
WX--------------------------
WDir190190190200190220210190190190200190200
WSpd13 13 12 10 11 11 9 8 9 9 10 10 7
WGst-- -- -- -- -- -- -- -- -- -- -- -- --
Raw hourly METARs
KSAN 231851Z 19013KT 10SM OVC015 18/14 A2992 RMK AO2 SLP133 T01830144
KSAN 231951Z 19013KT 10SM OVC016 19/14 A2992 RMK AO2 SLP133 T01890144
KSAN 232051Z 19012KT 10SM OVC012 18/14 A2992 RMK AO2 SLP130 T01830139 58000
KSAN 232151Z 20010KT 10SM OVC014 19/14 A2991 RMK AO2 SLP127 T01890139
KSAN 232251Z 19011KT 10SM OVC015 19/14 A2990 RMK AO2 SLP124 T01890139
KSAN 232351Z 22011KT 10SM OVC016 18/14 A2989 RMK AO2 SLP120 T01830139 10194 20183 58010
KSAN 240051Z 21009KT 10SM OVC017 18/14 A2987 RMK AO2 SLP115 T01830139
KSAN 240151Z 19008KT 10SM OVC016 18/14 A2987 RMK AO2 SLP115 T01830139
KSAN 240251Z 19009KT 10SM OVC016 18/14 A2987 RMK AO2 SLP114 T01830139 56005
KSAN 240351Z 19009KT 10SM OVC015 18/13 A2988 RMK AO2 SLP118 T01780133
KSAN 240451Z 20010KT 10SM OVC016 18/13 A2990 RMK AO2 SLP123 T01780133
KSAN 240551Z 19010KT 10SM OVC015 18/14 A2990 RMK AO2 SLP124 T01780139 10183 20178 51009
KSAN 240651Z 20007KT 10SM OVC015 18/13 A2990 RMK AO2 SLP125 T01780133



Page loaded:  07:11 UTC  |   12:11 AM Pacific  |   01:11 AM Mountain  |   02:11 AM Central  |   03:11 AM Eastern

 

ADVISORIES

FORECASTS

FORECASTS

OBSERVATIONS

USER TOOLS

ABOUT US